»·PEaware :: N6514B KEUG-KONP

N6514B :: KEUG-KONP

FLIGHT INFORMATION

Flight Status: Arrived
Operator: Privately registered:
United States
More flights under this callsign
Pilot: Javier M. (19891)
Aircraft: CESSNA 172 SKYHAWK
(C172)
More flights by this aircraft type
Origin: KEUG Mahlon Sweet
United States
Destination: KONP Newport Mun
United States
More flights between these airports :: More routes between these airports
Route: V451
File this flight plan on PilotEdge
Remarks: First Flight
Altitude:
(Current/Filed)
6,500ft
Speed:
(Current/Filed)
115kts
Departed: 28-Jul-18 02:23 PM
Arrived: 28-Jul-18 02:57 PM
Distance/Time
Traveled:
45nm/0:33
Distance/Time
To Go:
Arrived

Flight Plot

Page will automatically refresh every two minutes.

Flight plan parsing failed; only flown route is shown


Map Options




Map Legend


Flown Route
Filed Route
Departure Airport
Arrival Airport
Navaid (VOR, NDB)
Fix

Horizontal Profiles

Position Reports

Time Latitude Longitude Heading Altitude Ground
Speed
28-Jul-18 14:03 44.123196 -123.211113 31 365ft 0kts
28-Jul-18 14:04 44.123197 -123.211113 31 365ft 0kts
28-Jul-18 14:05 44.123197 -123.211113 31 365ft 0kts
28-Jul-18 14:06 44.123197 -123.211113 31 365ft 0kts
28-Jul-18 14:07 44.123197 -123.211113 31 365ft 0kts
28-Jul-18 14:08 44.123197 -123.211113 31 365ft 0kts
28-Jul-18 14:09 44.123197 -123.211113 31 365ft 0kts
28-Jul-18 14:10 44.123197 -123.211113 31 365ft 0kts
28-Jul-18 14:11 44.123197 -123.211113 31 365ft 0kts
28-Jul-18 14:12 44.123197 -123.211113 31 365ft 0kts
28-Jul-18 14:13 44.123197 -123.211113 31 365ft 0kts
28-Jul-18 14:14 44.123200 -123.211110 30 365ft 1kts
28-Jul-18 14:15 44.125102 -123.210479 27 361ft 5kts
28-Jul-18 14:16 44.126366 -123.208367 88 362ft 16kts
28-Jul-18 14:17 44.126406 -123.204212 88 363ft 3kts
28-Jul-18 14:18 44.127721 -123.204183 354 363ft 9kts
28-Jul-18 14:19 44.131366 -123.204283 3 359ft 14kts
28-Jul-18 14:20 44.132863 -123.203826 92 358ft 0kts
28-Jul-18 14:21 44.132863 -123.203827 93 358ft 0kts
28-Jul-18 14:22 44.132863 -123.203827 93 358ft 0kts
28-Jul-18 14:23 44.132816 -123.202903 114 358ft 13kts
28-Jul-18 14:24 44.115376 -123.201858 176 722ft 84kts
28-Jul-18 14:25 44.099559 -123.214765 272 1200ft 81kts
28-Jul-18 14:26 44.102959 -123.244203 323 1713ft 81kts
28-Jul-18 14:27 44.125200 -123.256620 340 2058ft 89kts
28-Jul-18 14:28 44.143791 -123.264486 336 2818ft 59kts
28-Jul-18 14:29 44.158021 -123.288743 297 3363ft 102kts
28-Jul-18 14:30 44.172724 -123.321975 314 3857ft 93kts
28-Jul-18 14:31 44.188229 -123.350109 303 4583ft 91kts
28-Jul-18 14:32 44.201476 -123.379026 303 5371ft 88kts
28-Jul-18 14:33 44.217891 -123.402598 317 6167ft 82kts
28-Jul-18 14:34 44.233457 -123.423635 305 6958ft 74kts
28-Jul-18 14:35 44.246846 -123.449673 306 7034ft 104kts
28-Jul-18 14:36 44.264840 -123.484202 306 6335ft 113kts
28-Jul-18 14:37 44.281802 -123.516953 306 6260ft 101kts
28-Jul-18 14:38 44.298255 -123.548686 306 6259ft 100kts
28-Jul-18 14:39 44.314687 -123.580268 306 6257ft 100kts
28-Jul-18 14:40 44.331303 -123.612075 307 6256ft 101kts
28-Jul-18 14:41 44.348004 -123.643828 307 6254ft 101kts
28-Jul-18 14:42 44.364694 -123.675321 306 6256ft 100kts
28-Jul-18 14:43 44.381384 -123.706518 306 6259ft 100kts
28-Jul-18 14:44 44.398081 -123.737376 306 6262ft 99kts
28-Jul-18 14:45 44.414872 -123.768021 306 6265ft 98kts
28-Jul-18 14:46 44.431663 -123.798242 307 6268ft 98kts
28-Jul-18 14:47 44.448138 -123.827917 307 6271ft 95kts
28-Jul-18 14:48 44.464320 -123.856961 307 6273ft 94kts
28-Jul-18 14:49 44.480400 -123.885675 307 6275ft 93kts
28-Jul-18 14:50 44.496878 -123.915002 307 5981ft 103kts
28-Jul-18 14:51 44.514511 -123.946872 308 5180ft 99kts
28-Jul-18 14:52 44.529373 -123.978647 298 4339ft 94kts
28-Jul-18 14:53 44.539814 -124.010427 298 3154ft 90kts
28-Jul-18 14:54 44.549946 -124.041943 307 1965ft 89kts
28-Jul-18 14:55 44.571729 -124.050331 5 835ft 80kts
28-Jul-18 14:56 44.591294 -124.049878 351 708ft 70kts
28-Jul-18 14:57 44.589253 -124.059400 174 345ft 92kts
28-Jul-18 14:58 44.575397 -124.058632 351 134ft 0kts

Navigation Log

Ident Type
Flight plan parsing failed, navigation log unavailable